< < Back
Terminal Aerodrome Forecast


Current Version              Previous Versions:   1  2  3  4  5  6  7  8  9  

Terminal Aerodrome Forecast

825
FTUS44 KOHX 231120
TAFBNA
TAF
KBNA 231120Z 2312/2412 02006KT P6SM SKC=

Latest METAR

777
SAUS70 KWBC 241300 RRC
MTRBNA
METAR KBNA 241253Z 00000KT 10SM FEW035 SCT200 SCT250 18/12 A3013 RMK AO2
SLP197 T01780122


USA.gov is the U.S. government's official web portal to all federal, state and local government web resources and services.